sensor_id;sensor_type;location;lat;lon;timestamp;P1;durP1;ratioP1;P2;durP2;ratioP2
15356;SDS011;7778;48.792;9.260;2023-09-18T00:00:05;9.48;;;2.65;;
15356;SDS011;7778;48.792;9.260;2023-09-18T00:02:55;3.95;;;2.40;;
15356;SDS011;7778;48.792;9.260;2023-09-18T00:05:41;4.65;;;2.50;;
15356;SDS011;7778;48.792;9.260;2023-09-18T00:08:27;4.72;;;2.40;;
15356;SDS011;7778;48.792;9.260;2023-09-18T00:11:12;6.55;;;2.67;;
15356;SDS011;7778;48.792;9.260;2023-09-18T00:13:59;8.70;;;2.75;;
15356;SDS011;7778;48.792;9.260;2023-09-18T00:16:46;10.18;;;3.30;;
15356;SDS011;7778;48.792;9.260;2023-09-18T00:19:32;5.88;;;3.08;;
15356;SDS011;7778;48.792;9.260;2023-09-18T00:22:18;4.05;;;2.65;;
15356;SDS011;7778;48.792;9.260;2023-09-18T00:25:04;3.05;;;2.38;;
15356;SDS011;7778;48.792;9.260;2023-09-18T00:27:51;6.82;;;2.80;;
15356;SDS011;7778;48.792;9.260;2023-09-18T00:30:39;3.35;;;2.67;;
15356;SDS011;7778;48.792;9.260;2023-09-18T00:33:32;6.55;;;2.58;;
15356;SDS011;7778;48.792;9.260;2023-09-18T00:36:17;3.85;;;2.75;;
15356;SDS011;7778;48.792;9.260;2023-09-18T00:39:03;5.97;;;2.65;;
15356;SDS011;7778;48.792;9.260;2023-09-18T00:41:49;7.50;;;3.45;;
15356;SDS011;7778;48.792;9.260;2023-09-18T00:44:37;3.90;;;2.75;;
15356;SDS011;7778;48.792;9.260;2023-09-18T00:47:24;4.68;;;2.33;;
15356;SDS011;7778;48.792;9.260;2023-09-18T00:50:10;7.43;;;3.22;;
15356;SDS011;7778;48.792;9.260;2023-09-18T00:52:58;3.55;;;2.80;;
15356;SDS011;7778;48.792;9.260;2023-09-18T00:55:44;8.93;;;3.03;;
15356;SDS011;7778;48.792;9.260;2023-09-18T00:58:30;3.05;;;2.53;;
15356;SDS011;7778;48.792;9.260;2023-09-18T01:01:18;4.43;;;3.15;;
15356;SDS011;7778;48.792;9.260;2023-09-18T01:04:07;6.32;;;2.40;;
15356;SDS011;7778;48.792;9.260;2023-09-18T01:06:54;3.97;;;2.45;;
15356;SDS011;7778;48.792;9.260;2023-09-18T01:09:40;3.58;;;2.75;;
15356;SDS011;7778;48.792;9.260;2023-09-18T01:12:27;5.28;;;2.58;;
15356;SDS011;7778;48.792;9.260;2023-09-18T01:15:21;2.67;;;2.42;;
15356;SDS011;7778;48.792;9.260;2023-09-18T01:18:11;4.25;;;2.53;;
15356;SDS011;7778;48.792;9.260;2023-09-18T01:20:59;4.80;;;2.83;;
15356;SDS011;7778;48.792;9.260;2023-09-18T01:23:46;4.47;;;2.63;;
15356;SDS011;7778;48.792;9.260;2023-09-18T01:26:32;3.13;;;2.70;;
15356;SDS011;7778;48.792;9.260;2023-09-18T01:29:18;6.60;;;2.50;;
15356;SDS011;7778;48.792;9.260;2023-09-18T01:32:04;5.18;;;2.20;;
15356;SDS011;7778;48.792;9.260;2023-09-18T01:34:51;6.43;;;2.92;;
15356;SDS011;7778;48.792;9.260;2023-09-18T01:37:39;6.00;;;3.35;;
15356;SDS011;7778;48.792;9.260;2023-09-18T01:40:27;2.53;;;2.28;;
15356;SDS011;7778;48.792;9.260;2023-09-18T01:43:13;5.25;;;2.45;;
15356;SDS011;7778;48.792;9.260;2023-09-18T01:45:59;6.20;;;3.05;;
15356;SDS011;7778;48.792;9.260;2023-09-18T01:48:45;3.00;;;2.38;;
15356;SDS011;7778;48.792;9.260;2023-09-18T01:51:32;3.30;;;2.58;;
15356;SDS011;7778;48.792;9.260;2023-09-18T01:54:17;3.95;;;2.55;;
15356;SDS011;7778;48.792;9.260;2023-09-18T01:57:04;6.03;;;2.72;;
15356;SDS011;7778;48.792;9.260;2023-09-18T01:59:50;5.40;;;2.72;;
15356;SDS011;7778;48.792;9.260;2023-09-18T02:02:36;5.28;;;3.10;;
15356;SDS011;7778;48.792;9.260;2023-09-18T02:05:22;3.80;;;2.15;;
15356;SDS011;7778;48.792;9.260;2023-09-18T02:08:08;3.35;;;2.40;;
15356;SDS011;7778;48.792;9.260;2023-09-18T02:10:54;9.57;;;2.30;;
15356;SDS011;7778;48.792;9.260;2023-09-18T02:13:40;5.13;;;2.13;;
15356;SDS011;7778;48.792;9.260;2023-09-18T02:16:26;4.55;;;1.90;;
15356;SDS011;7778;48.792;9.260;2023-09-18T02:19:12;5.00;;;2.78;;
15356;SDS011;7778;48.792;9.260;2023-09-18T02:21:58;5.00;;;2.25;;
15356;SDS011;7778;48.792;9.260;2023-09-18T02:24:44;4.35;;;2.20;;
15356;SDS011;7778;48.792;9.260;2023-09-18T02:27:29;3.55;;;2.08;;
15356;SDS011;7778;48.792;9.260;2023-09-18T02:30:16;6.22;;;2.10;;
15356;SDS011;7778;48.792;9.260;2023-09-18T02:33:03;11.68;;;2.88;;
15356;SDS011;7778;48.792;9.260;2023-09-18T02:35:48;8.10;;;2.70;;
15356;SDS011;7778;48.792;9.260;2023-09-18T02:38:34;5.65;;;2.38;;
15356;SDS011;7778;48.792;9.260;2023-09-18T02:41:20;6.93;;;2.38;;
15356;SDS011;7778;48.792;9.260;2023-09-18T02:44:06;5.85;;;2.90;;
15356;SDS011;7778;48.792;9.260;2023-09-18T02:46:52;7.18;;;2.13;;
15356;SDS011;7778;48.792;9.260;2023-09-18T02:49:38;6.78;;;2.38;;
15356;SDS011;7778;48.792;9.260;2023-09-18T02:52:24;10.55;;;2.85;;
15356;SDS011;7778;48.792;9.260;2023-09-18T02:55:09;8.07;;;2.90;;
15356;SDS011;7778;48.792;9.260;2023-09-18T02:57:55;9.82;;;2.75;;
15356;SDS011;7778;48.792;9.260;2023-09-18T03:00:40;5.68;;;2.65;;
15356;SDS011;7778;48.792;9.260;2023-09-18T03:03:28;10.55;;;2.75;;
15356;SDS011;7778;48.792;9.260;2023-09-18T03:06:14;10.88;;;2.97;;
15356;SDS011;7778;48.792;9.260;2023-09-18T03:09:00;7.18;;;2.85;;
15356;SDS011;7778;48.792;9.260;2023-09-18T03:11:46;6.13;;;2.50;;
15356;SDS011;7778;48.792;9.260;2023-09-18T03:14:31;6.70;;;2.38;;
15356;SDS011;7778;48.792;9.260;2023-09-18T03:17:18;9.57;;;2.45;;
15356;SDS011;7778;48.792;9.260;2023-09-18T03:20:06;5.50;;;2.63;;
15356;SDS011;7778;48.792;9.260;2023-09-18T03:22:54;6.40;;;1.98;;
15356;SDS011;7778;48.792;9.260;2023-09-18T03:25:41;5.88;;;2.38;;
15356;SDS011;7778;48.792;9.260;2023-09-18T03:28:26;4.28;;;2.63;;
15356;SDS011;7778;48.792;9.260;2023-09-18T03:31:12;7.88;;;2.70;;
15356;SDS011;7778;48.792;9.260;2023-09-18T03:33:57;10.10;;;2.90;;
15356;SDS011;7778;48.792;9.260;2023-09-18T03:36:44;10.23;;;3.25;;
15356;SDS011;7778;48.792;9.260;2023-09-18T03:39:30;6.32;;;2.45;;
15356;SDS011;7778;48.792;9.260;2023-09-18T03:42:15;4.38;;;2.30;;
15356;SDS011;7778;48.792;9.260;2023-09-18T03:45:01;10.68;;;2.80;;
15356;SDS011;7778;48.792;9.260;2023-09-18T03:47:47;10.27;;;3.03;;
15356;SDS011;7778;48.792;9.260;2023-09-18T03:50:33;9.27;;;2.50;;
15356;SDS011;7778;48.792;9.260;2023-09-18T03:53:20;5.30;;;2.25;;
15356;SDS011;7778;48.792;9.260;2023-09-18T03:56:06;4.97;;;2.60;;
15356;SDS011;7778;48.792;9.260;2023-09-18T03:58:51;5.40;;;2.85;;
15356;SDS011;7778;48.792;9.260;2023-09-18T04:01:37;6.82;;;2.88;;
15356;SDS011;7778;48.792;9.260;2023-09-18T04:04:22;8.10;;;2.70;;
15356;SDS011;7778;48.792;9.260;2023-09-18T04:07:08;7.78;;;2.58;;
15356;SDS011;7778;48.792;9.260;2023-09-18T04:09:56;10.60;;;2.83;;
15356;SDS011;7778;48.792;9.260;2023-09-18T04:12:41;10.15;;;3.08;;
15356;SDS011;7778;48.792;9.260;2023-09-18T04:15:29;8.68;;;2.30;;
15356;SDS011;7778;48.792;9.260;2023-09-18T04:18:15;4.72;;;2.42;;
15356;SDS011;7778;48.792;9.260;2023-09-18T04:21:00;7.43;;;2.90;;
15356;SDS011;7778;48.792;9.260;2023-09-18T04:23:47;4.70;;;2.10;;
15356;SDS011;7778;48.792;9.260;2023-09-18T04:26:40;7.65;;;2.63;;
15356;SDS011;7778;48.792;9.260;2023-09-18T04:29:26;5.18;;;2.35;;
15356;SDS011;7778;48.792;9.260;2023-09-18T04:32:11;3.60;;;2.13;;
15356;SDS011;7778;48.792;9.260;2023-09-18T04:34:57;7.03;;;2.28;;
15356;SDS011;7778;48.792;9.260;2023-09-18T04:37:42;5.97;;;2.72;;
15356;SDS011;7778;48.792;9.260;2023-09-18T04:40:28;4.65;;;2.08;;
15356;SDS011;7778;48.792;9.260;2023-09-18T04:43:17;7.70;;;2.15;;
15356;SDS011;7778;48.792;9.260;2023-09-18T04:46:02;8.40;;;1.88;;
15356;SDS011;7778;48.792;9.260;2023-09-18T04:48:49;10.90;;;2.90;;
15356;SDS011;7778;48.792;9.260;2023-09-18T04:51:34;8.80;;;2.65;;
15356;SDS011;7778;48.792;9.260;2023-09-18T04:54:20;5.85;;;2.33;;
15356;SDS011;7778;48.792;9.260;2023-09-18T04:57:05;11.02;;;2.45;;
15356;SDS011;7778;48.792;9.260;2023-09-18T04:59:53;9.75;;;2.85;;
15356;SDS011;7778;48.792;9.260;2023-09-18T05:02:39;9.07;;;2.63;;
15356;SDS011;7778;48.792;9.260;2023-09-18T05:05:26;5.97;;;2.22;;
15356;SDS011;7778;48.792;9.260;2023-09-18T05:08:13;4.85;;;2.13;;
15356;SDS011;7778;48.792;9.260;2023-09-18T05:10:59;11.75;;;3.00;;
15356;SDS011;7778;48.792;9.260;2023-09-18T05:13:47;14.32;;;3.08;;
15356;SDS011;7778;48.792;9.260;2023-09-18T05:16:35;7.63;;;2.85;;
15356;SDS011;7778;48.792;9.260;2023-09-18T05:19:25;6.65;;;2.70;;
15356;SDS011;7778;48.792;9.260;2023-09-18T05:22:13;2.70;;;2.00;;
15356;SDS011;7778;48.792;9.260;2023-09-18T05:24:59;8.57;;;2.88;;
15356;SDS011;7778;48.792;9.260;2023-09-18T05:27:45;6.25;;;2.88;;
15356;SDS011;7778;48.792;9.260;2023-09-18T05:30:31;6.32;;;2.63;;
15356;SDS011;7778;48.792;9.260;2023-09-18T05:33:24;5.28;;;2.25;;
15356;SDS011;7778;48.792;9.260;2023-09-18T05:36:09;7.97;;;2.78;;
15356;SDS011;7778;48.792;9.260;2023-09-18T05:38:55;4.70;;;2.63;;
15356;SDS011;7778;48.792;9.260;2023-09-18T05:41:43;9.52;;;2.67;;
15356;SDS011;7778;48.792;9.260;2023-09-18T05:44:30;6.68;;;2.55;;
15356;SDS011;7778;48.792;9.260;2023-09-18T05:47:18;4.28;;;2.58;;
15356;SDS011;7778;48.792;9.260;2023-09-18T05:50:08;7.32;;;2.85;;
15356;SDS011;7778;48.792;9.260;2023-09-18T05:52:59;10.98;;;2.20;;
15356;SDS011;7778;48.792;9.260;2023-09-18T05:55:48;7.82;;;2.65;;
15356;SDS011;7778;48.792;9.260;2023-09-18T05:58:36;7.97;;;2.25;;
15356;SDS011;7778;48.792;9.260;2023-09-18T06:01:24;4.18;;;2.50;;
15356;SDS011;7778;48.792;9.260;2023-09-18T06:04:10;4.60;;;2.30;;
15356;SDS011;7778;48.792;9.260;2023-09-18T06:06:57;5.07;;;2.28;;
15356;SDS011;7778;48.792;9.260;2023-09-18T06:09:44;4.88;;;2.13;;
15356;SDS011;7778;48.792;9.260;2023-09-18T06:12:29;9.85;;;2.00;;
15356;SDS011;7778;48.792;9.260;2023-09-18T06:15:15;3.70;;;1.95;;
15356;SDS011;7778;48.792;9.260;2023-09-18T06:18:03;7.65;;;2.30;;
15356;SDS011;7778;48.792;9.260;2023-09-18T06:20:50;7.15;;;2.13;;
15356;SDS011;7778;48.792;9.260;2023-09-18T06:23:37;13.38;;;3.08;;
15356;SDS011;7778;48.792;9.260;2023-09-18T06:26:22;5.82;;;2.40;;
15356;SDS011;7778;48.792;9.260;2023-09-18T06:29:08;4.43;;;1.90;;
15356;SDS011;7778;48.792;9.260;2023-09-18T06:31:54;6.63;;;2.28;;
15356;SDS011;7778;48.792;9.260;2023-09-18T06:34:39;5.00;;;2.33;;
15356;SDS011;7778;48.792;9.260;2023-09-18T06:37:27;5.93;;;1.80;;
15356;SDS011;7778;48.792;9.260;2023-09-18T06:40:16;6.88;;;2.03;;
15356;SDS011;7778;48.792;9.260;2023-09-18T06:43:02;4.40;;;1.92;;
15356;SDS011;7778;48.792;9.260;2023-09-18T06:45:50;4.85;;;2.20;;
15356;SDS011;7778;48.792;9.260;2023-09-18T06:48:35;9.35;;;2.20;;
15356;SDS011;7778;48.792;9.260;2023-09-18T06:51:21;10.98;;;3.88;;
15356;SDS011;7778;48.792;9.260;2023-09-18T06:54:07;8.52;;;2.88;;
15356;SDS011;7778;48.792;9.260;2023-09-18T06:56:54;7.97;;;2.40;;
15356;SDS011;7778;48.792;9.260;2023-09-18T06:59:40;6.40;;;2.38;;
15356;SDS011;7778;48.792;9.260;2023-09-18T07:02:25;6.05;;;2.40;;
15356;SDS011;7778;48.792;9.260;2023-09-18T07:05:11;9.00;;;2.38;;
15356;SDS011;7778;48.792;9.260;2023-09-18T07:07:57;9.43;;;2.80;;
15356;SDS011;7778;48.792;9.260;2023-09-18T07:10:42;5.93;;;1.75;;
15356;SDS011;7778;48.792;9.260;2023-09-18T07:13:29;6.18;;;2.03;;
15356;SDS011;7778;48.792;9.260;2023-09-18T07:16:15;4.38;;;1.70;;
15356;SDS011;7778;48.792;9.260;2023-09-18T07:19:00;3.67;;;1.85;;
15356;SDS011;7778;48.792;9.260;2023-09-18T07:21:48;6.22;;;1.92;;
15356;SDS011;7778;48.792;9.260;2023-09-18T07:24:34;4.50;;;1.83;;
15356;SDS011;7778;48.792;9.260;2023-09-18T07:27:24;8.75;;;2.50;;
15356;SDS011;7778;48.792;9.260;2023-09-18T07:30:12;5.03;;;1.85;;
15356;SDS011;7778;48.792;9.260;2023-09-18T07:33:00;6.85;;;1.92;;
15356;SDS011;7778;48.792;9.260;2023-09-18T07:35:45;4.28;;;1.88;;
15356;SDS011;7778;48.792;9.260;2023-09-18T07:38:32;4.75;;;2.22;;
15356;SDS011;7778;48.792;9.260;2023-09-18T07:41:17;12.52;;;2.33;;
15356;SDS011;7778;48.792;9.260;2023-09-18T07:44:04;8.93;;;2.25;;
15356;SDS011;7778;48.792;9.260;2023-09-18T07:46:52;3.53;;;1.27;;
15356;SDS011;7778;48.792;9.260;2023-09-18T07:49:37;3.65;;;1.80;;
15356;SDS011;7778;48.792;9.260;2023-09-18T07:52:23;4.05;;;2.03;;
15356;SDS011;7778;48.792;9.260;2023-09-18T07:55:09;6.03;;;1.90;;
15356;SDS011;7778;48.792;9.260;2023-09-18T07:57:54;4.28;;;1.52;;
15356;SDS011;7778;48.792;9.260;2023-09-18T08:00:40;2.22;;;1.40;;
15356;SDS011;7778;48.792;9.260;2023-09-18T08:03:27;4.40;;;2.03;;
15356;SDS011;7778;48.792;9.260;2023-09-18T08:06:13;4.22;;;2.20;;
15356;SDS011;7778;48.792;9.260;2023-09-18T08:09:02;7.72;;;2.13;;
15356;SDS011;7778;48.792;9.260;2023-09-18T08:11:49;5.13;;;1.27;;
15356;SDS011;7778;48.792;9.260;2023-09-18T08:14:38;3.08;;;0.93;;
15356;SDS011;7778;48.792;9.260;2023-09-18T08:17:24;2.28;;;1.30;;
15356;SDS011;7778;48.792;9.260;2023-09-18T08:20:18;1.95;;;1.05;;
15356;SDS011;7778;48.792;9.260;2023-09-18T08:23:06;6.22;;;1.65;;
15356;SDS011;7778;48.792;9.260;2023-09-18T08:25:52;2.03;;;1.02;;
15356;SDS011;7778;48.792;9.260;2023-09-18T08:28:40;2.22;;;1.00;;
15356;SDS011;7778;48.792;9.260;2023-09-18T08:31:27;3.63;;;1.05;;
15356;SDS011;7778;48.792;9.260;2023-09-18T08:34:15;2.92;;;1.52;;
15356;SDS011;7778;48.792;9.260;2023-09-18T08:37:02;3.33;;;1.45;;
15356;SDS011;7778;48.792;9.260;2023-09-18T08:39:48;3.22;;;1.50;;
15356;SDS011;7778;48.792;9.260;2023-09-18T08:42:34;1.73;;;0.88;;
15356;SDS011;7778;48.792;9.260;2023-09-18T08:45:25;4.03;;;1.42;;
15356;SDS011;7778;48.792;9.260;2023-09-18T08:48:19;2.40;;;1.08;;
15356;SDS011;7778;48.792;9.260;2023-09-18T08:51:06;2.08;;;1.10;;
15356;SDS011;7778;48.792;9.260;2023-09-18T08:53:53;2.97;;;1.15;;
15356;SDS011;7778;48.792;9.260;2023-09-18T08:56:39;2.22;;;0.77;;
15356;SDS011;7778;48.792;9.260;2023-09-18T08:59:25;2.08;;;1.15;;
15356;SDS011;7778;48.792;9.260;2023-09-18T09:02:14;6.20;;;1.30;;
15356;SDS011;7778;48.792;9.260;2023-09-18T09:04:59;2.50;;;1.33;;
15356;SDS011;7778;48.792;9.260;2023-09-18T09:07:45;2.80;;;0.90;;
15356;SDS011;7778;48.792;9.260;2023-09-18T09:10:32;3.60;;;0.90;;
15356;SDS011;7778;48.792;9.260;2023-09-18T09:13:17;3.10;;;1.00;;
15356;SDS011;7778;48.792;9.260;2023-09-18T09:16:10;4.03;;;1.10;;
15356;SDS011;7778;48.792;9.260;2023-09-18T09:18:57;1.88;;;1.10;;
15356;SDS011;7778;48.792;9.260;2023-09-18T09:21:42;3.17;;;0.93;;
15356;SDS011;7778;48.792;9.260;2023-09-18T09:24:38;2.55;;;0.70;;
15356;SDS011;7778;48.792;9.260;2023-09-18T09:27:27;1.25;;;0.88;;
15356;SDS011;7778;48.792;9.260;2023-09-18T09:30:15;1.92;;;0.70;;
15356;SDS011;7778;48.792;9.260;2023-09-18T09:33:05;2.40;;;0.70;;
15356;SDS011;7778;48.792;9.260;2023-09-18T09:35:51;1.00;;;0.85;;
15356;SDS011;7778;48.792;9.260;2023-09-18T09:38:37;2.53;;;1.05;;
15356;SDS011;7778;48.792;9.260;2023-09-18T09:41:24;1.67;;;1.15;;
15356;SDS011;7778;48.792;9.260;2023-09-18T09:44:12;2.90;;;1.00;;
15356;SDS011;7778;48.792;9.260;2023-09-18T09:46:59;2.80;;;0.93;;
15356;SDS011;7778;48.792;9.260;2023-09-18T09:49:46;1.23;;;0.73;;
15356;SDS011;7778;48.792;9.260;2023-09-18T09:52:33;2.10;;;1.08;;
15356;SDS011;7778;48.792;9.260;2023-09-18T09:55:19;2.70;;;1.42;;
15356;SDS011;7778;48.792;9.260;2023-09-18T09:58:08;5.18;;;1.40;;
15356;SDS011;7778;48.792;9.260;2023-09-18T10:00:56;5.88;;;2.05;;
15356;SDS011;7778;48.792;9.260;2023-09-18T10:03:49;3.28;;;1.88;;
15356;SDS011;7778;48.792;9.260;2023-09-18T10:06:35;3.15;;;1.23;;
15356;SDS011;7778;48.792;9.260;2023-09-18T10:09:22;3.10;;;1.00;;
15356;SDS011;7778;48.792;9.260;2023-09-18T10:12:15;4.55;;;1.05;;
15356;SDS011;7778;48.792;9.260;2023-09-18T10:15:05;4.50;;;1.40;;
15356;SDS011;7778;48.792;9.260;2023-09-18T10:17:56;5.38;;;1.40;;
15356;SDS011;7778;48.792;9.260;2023-09-18T10:20:45;5.88;;;1.50;;
15356;SDS011;7778;48.792;9.260;2023-09-18T10:23:51;2.25;;;0.98;;
15356;SDS011;7778;48.792;9.260;2023-09-18T10:26:46;2.95;;;1.42;;
15356;SDS011;7778;48.792;9.260;2023-09-18T10:29:36;3.10;;;1.55;;
15356;SDS011;7778;48.792;9.260;2023-09-18T10:32:22;3.85;;;1.30;;
15356;SDS011;7778;48.792;9.260;2023-09-18T10:35:13;4.00;;;1.10;;
15356;SDS011;7778;48.792;9.260;2023-09-18T10:38:01;2.92;;;1.40;;
15356;SDS011;7778;48.792;9.260;2023-09-18T10:40:49;2.05;;;1.00;;
15356;SDS011;7778;48.792;9.260;2023-09-18T10:43:36;2.85;;;1.17;;
15356;SDS011;7778;48.792;9.260;2023-09-18T10:46:22;2.17;;;1.48;;
15356;SDS011;7778;48.792;9.260;2023-09-18T10:49:09;3.25;;;1.27;;
15356;SDS011;7778;48.792;9.260;2023-09-18T10:51:56;1.77;;;0.93;;
15356;SDS011;7778;48.792;9.260;2023-09-18T10:54:42;4.30;;;1.42;;
15356;SDS011;7778;48.792;9.260;2023-09-18T10:57:32;7.43;;;1.50;;
15356;SDS011;7778;48.792;9.260;2023-09-18T11:00:20;3.00;;;1.27;;
15356;SDS011;7778;48.792;9.260;2023-09-18T11:03:09;2.22;;;1.00;;
15356;SDS011;7778;48.792;9.260;2023-09-18T11:06:04;3.00;;;0.82;;
15356;SDS011;7778;48.792;9.260;2023-09-18T11:09:00;1.98;;;0.98;;
15356;SDS011;7778;48.792;9.260;2023-09-18T11:11:51;1.52;;;0.80;;
15356;SDS011;7778;48.792;9.260;2023-09-18T11:14:42;3.78;;;1.13;;
15356;SDS011;7778;48.792;9.260;2023-09-18T11:17:33;1.73;;;0.98;;
15356;SDS011;7778;48.792;9.260;2023-09-18T11:20:21;1.75;;;1.02;;
15356;SDS011;7778;48.792;9.260;2023-09-18T11:23:21;2.50;;;0.90;;
15356;SDS011;7778;48.792;9.260;2023-09-18T11:26:21;3.38;;;1.00;;
15356;SDS011;7778;48.792;9.260;2023-09-18T11:29:08;2.45;;;1.38;;
15356;SDS011;7778;48.792;9.260;2023-09-18T11:31:56;3.35;;;1.20;;
15356;SDS011;7778;48.792;9.260;2023-09-18T11:34:41;1.85;;;1.10;;
15356;SDS011;7778;48.792;9.260;2023-09-18T11:37:27;1.95;;;1.15;;
15356;SDS011;7778;48.792;9.260;2023-09-18T11:40:29;2.78;;;1.10;;
15356;SDS011;7778;48.792;9.260;2023-09-18T11:43:26;1.40;;;0.90;;
15356;SDS011;7778;48.792;9.260;2023-09-18T11:46:17;5.28;;;1.27;;
15356;SDS011;7778;48.792;9.260;2023-09-18T11:49:04;0.88;;;0.88;;
15356;SDS011;7778;48.792;9.260;2023-09-18T11:51:53;4.20;;;1.08;;
15356;SDS011;7778;48.792;9.260;2023-09-18T11:54:43;2.63;;;0.90;;
15356;SDS011;7778;48.792;9.260;2023-09-18T11:57:34;0.90;;;0.90;;
15356;SDS011;7778;48.792;9.260;2023-09-18T12:00:22;3.20;;;0.90;;
15356;SDS011;7778;48.792;9.260;2023-09-18T12:03:14;1.42;;;0.88;;
15356;SDS011;7778;48.792;9.260;2023-09-18T12:06:09;2.80;;;1.13;;
15356;SDS011;7778;48.792;9.260;2023-09-18T12:08:57;1.27;;;0.80;;
15356;SDS011;7778;48.792;9.260;2023-09-18T12:11:43;1.40;;;1.00;;
15356;SDS011;7778;48.792;9.260;2023-09-18T12:14:35;0.98;;;0.90;;
15356;SDS011;7778;48.792;9.260;2023-09-18T12:17:24;2.95;;;0.95;;
15356;SDS011;7778;48.792;9.260;2023-09-18T12:20:15;2.13;;;1.00;;
15356;SDS011;7778;48.792;9.260;2023-09-18T12:23:03;3.45;;;1.08;;
15356;SDS011;7778;48.792;9.260;2023-09-18T12:25:49;1.42;;;1.05;;
15356;SDS011;7778;48.792;9.260;2023-09-18T12:28:43;3.20;;;1.20;;
15356;SDS011;7778;48.792;9.260;2023-09-18T12:31:29;1.75;;;0.80;;
15356;SDS011;7778;48.792;9.260;2023-09-18T12:34:18;2.83;;;0.85;;
15356;SDS011;7778;48.792;9.260;2023-09-18T12:37:05;3.72;;;1.13;;
15356;SDS011;7778;48.792;9.260;2023-09-18T12:39:54;3.58;;;1.25;;
15356;SDS011;7778;48.792;9.260;2023-09-18T12:42:40;1.52;;;1.00;;
15356;SDS011;7778;48.792;9.260;2023-09-18T12:45:26;3.80;;;1.33;;
15356;SDS011;7778;48.792;9.260;2023-09-18T12:48:14;3.30;;;1.33;;
15356;SDS011;7778;48.792;9.260;2023-09-18T12:51:04;1.83;;;1.30;;
15356;SDS011;7778;48.792;9.260;2023-09-18T12:53:58;1.35;;;1.00;;
15356;SDS011;7778;48.792;9.260;2023-09-18T12:56:44;1.45;;;0.80;;
15356;SDS011;7778;48.792;9.260;2023-09-18T12:59:30;3.22;;;1.00;;
15356;SDS011;7778;48.792;9.260;2023-09-18T13:02:16;2.10;;;0.90;;
15356;SDS011;7778;48.792;9.260;2023-09-18T13:05:03;2.28;;;0.90;;
15356;SDS011;7778;48.792;9.260;2023-09-18T13:07:52;2.63;;;0.98;;
15356;SDS011;7778;48.792;9.260;2023-09-18T13:10:42;7.95;;;1.30;;
15356;SDS011;7778;48.792;9.260;2023-09-18T13:13:29;1.15;;;0.88;;
15356;SDS011;7778;48.792;9.260;2023-09-18T13:16:15;2.00;;;1.08;;
15356;SDS011;7778;48.792;9.260;2023-09-18T13:19:03;1.55;;;0.90;;
15356;SDS011;7778;48.792;9.260;2023-09-18T13:21:49;2.13;;;1.20;;
15356;SDS011;7778;48.792;9.260;2023-09-18T13:24:36;1.90;;;0.90;;
15356;SDS011;7778;48.792;9.260;2023-09-18T13:27:22;1.23;;;0.90;;
15356;SDS011;7778;48.792;9.260;2023-09-18T13:30:08;2.58;;;1.13;;
15356;SDS011;7778;48.792;9.260;2023-09-18T13:33:01;1.85;;;1.10;;
15356;SDS011;7778;48.792;9.260;2023-09-18T13:35:49;1.10;;;0.80;;
15356;SDS011;7778;48.792;9.260;2023-09-18T13:38:36;1.98;;;0.90;;
15356;SDS011;7778;48.792;9.260;2023-09-18T13:41:23;5.03;;;1.05;;
15356;SDS011;7778;48.792;9.260;2023-09-18T13:44:09;3.05;;;1.35;;
15356;SDS011;7778;48.792;9.260;2023-09-18T13:46:55;1.00;;;0.93;;
15356;SDS011;7778;48.792;9.260;2023-09-18T13:49:40;4.32;;;1.15;;
15356;SDS011;7778;48.792;9.260;2023-09-18T13:52:26;3.05;;;1.23;;
15356;SDS011;7778;48.792;9.260;2023-09-18T13:55:12;1.10;;;0.85;;
15356;SDS011;7778;48.792;9.260;2023-09-18T13:57:59;0.70;;;0.70;;
15356;SDS011;7778;48.792;9.260;2023-09-18T14:00:47;3.38;;;1.83;;
15356;SDS011;7778;48.792;9.260;2023-09-18T14:03:32;3.40;;;1.40;;
15356;SDS011;7778;48.792;9.260;2023-09-18T14:06:18;1.90;;;1.10;;
15356;SDS011;7778;48.792;9.260;2023-09-18T14:09:04;2.88;;;1.15;;
15356;SDS011;7778;48.792;9.260;2023-09-18T14:11:50;1.40;;;0.90;;
15356;SDS011;7778;48.792;9.260;2023-09-18T14:14:37;1.27;;;0.88;;
15356;SDS011;7778;48.792;9.260;2023-09-18T14:17:24;2.15;;;1.00;;
15356;SDS011;7778;48.792;9.260;2023-09-18T14:20:10;3.10;;;0.90;;
15356;SDS011;7778;48.792;9.260;2023-09-18T14:22:56;1.60;;;0.70;;
15356;SDS011;7778;48.792;9.260;2023-09-18T14:25:41;2.88;;;1.13;;
15356;SDS011;7778;48.792;9.260;2023-09-18T14:28:27;1.05;;;0.73;;
15356;SDS011;7778;48.792;9.260;2023-09-18T14:31:14;3.10;;;1.25;;
15356;SDS011;7778;48.792;9.260;2023-09-18T14:34:00;1.65;;;1.02;;
15356;SDS011;7778;48.792;9.260;2023-09-18T14:36:46;1.95;;;1.15;;
15356;SDS011;7778;48.792;9.260;2023-09-18T14:39:31;2.72;;;1.05;;
15356;SDS011;7778;48.792;9.260;2023-09-18T14:42:18;2.58;;;0.90;;
15356;SDS011;7778;48.792;9.260;2023-09-18T14:45:04;3.15;;;1.27;;
15356;SDS011;7778;48.792;9.260;2023-09-18T14:48:04;0.90;;;0.73;;
15356;SDS011;7778;48.792;9.260;2023-09-18T14:50:53;1.20;;;0.95;;
15356;SDS011;7778;48.792;9.260;2023-09-18T14:53:39;1.27;;;1.17;;
15356;SDS011;7778;48.792;9.260;2023-09-18T14:56:24;2.00;;;0.70;;
15356;SDS011;7778;48.792;9.260;2023-09-18T14:59:10;2.17;;;0.80;;
15356;SDS011;7778;48.792;9.260;2023-09-18T15:01:56;2.38;;;1.10;;
15356;SDS011;7778;48.792;9.260;2023-09-18T15:04:43;1.17;;;0.77;;
15356;SDS011;7778;48.792;9.260;2023-09-18T15:07:29;2.05;;;1.05;;
15356;SDS011;7778;48.792;9.260;2023-09-18T15:10:14;3.00;;;1.30;;
15356;SDS011;7778;48.792;9.260;2023-09-18T15:13:00;1.42;;;0.90;;
15356;SDS011;7778;48.792;9.260;2023-09-18T15:15:46;0.90;;;0.57;;
15356;SDS011;7778;48.792;9.260;2023-09-18T15:18:32;2.25;;;0.85;;
15356;SDS011;7778;48.792;9.260;2023-09-18T15:21:19;0.95;;;0.82;;
15356;SDS011;7778;48.792;9.260;2023-09-18T15:24:05;1.13;;;0.73;;
15356;SDS011;7778;48.792;9.260;2023-09-18T15:26:52;1.83;;;0.70;;
15356;SDS011;7778;48.792;9.260;2023-09-18T15:29:37;4.93;;;1.45;;
15356;SDS011;7778;48.792;9.260;2023-09-18T15:32:23;2.40;;;1.15;;
15356;SDS011;7778;48.792;9.260;2023-09-18T15:35:09;1.75;;;0.70;;
15356;SDS011;7778;48.792;9.260;2023-09-18T15:37:56;1.88;;;0.80;;
15356;SDS011;7778;48.792;9.260;2023-09-18T15:40:44;1.65;;;1.20;;
15356;SDS011;7778;48.792;9.260;2023-09-18T15:43:30;1.15;;;0.77;;
15356;SDS011;7778;48.792;9.260;2023-09-18T15:46:17;4.25;;;1.05;;
15356;SDS011;7778;48.792;9.260;2023-09-18T15:49:02;1.20;;;0.80;;
15356;SDS011;7778;48.792;9.260;2023-09-18T15:51:48;2.20;;;1.17;;
15356;SDS011;7778;48.792;9.260;2023-09-18T15:54:34;1.27;;;0.90;;
15356;SDS011;7778;48.792;9.260;2023-09-18T15:57:20;1.38;;;0.77;;
15356;SDS011;7778;48.792;9.260;2023-09-18T16:00:06;2.53;;;0.98;;
15356;SDS011;7778;48.792;9.260;2023-09-18T16:02:53;0.80;;;0.80;;
15356;SDS011;7778;48.792;9.260;2023-09-18T16:05:39;1.65;;;1.10;;
15356;SDS011;7778;48.792;9.260;2023-09-18T16:08:25;1.45;;;0.98;;
15356;SDS011;7778;48.792;9.260;2023-09-18T16:11:14;1.67;;;1.10;;
15356;SDS011;7778;48.792;9.260;2023-09-18T16:14:00;1.85;;;1.02;;
15356;SDS011;7778;48.792;9.260;2023-09-18T16:16:45;1.92;;;1.00;;
15356;SDS011;7778;48.792;9.260;2023-09-18T16:19:31;0.68;;;0.68;;
15356;SDS011;7778;48.792;9.260;2023-09-18T16:22:17;1.40;;;0.90;;
15356;SDS011;7778;48.792;9.260;2023-09-18T16:25:02;0.90;;;0.90;;
15356;SDS011;7778;48.792;9.260;2023-09-18T16:27:51;1.40;;;0.93;;
15356;SDS011;7778;48.792;9.260;2023-09-18T16:30:37;1.42;;;1.13;;
15356;SDS011;7778;48.792;9.260;2023-09-18T16:33:22;2.17;;;1.05;;
15356;SDS011;7778;48.792;9.260;2023-09-18T16:36:09;2.97;;;1.50;;
15356;SDS011;7778;48.792;9.260;2023-09-18T16:38:54;2.80;;;1.08;;
15356;SDS011;7778;48.792;9.260;2023-09-18T16:41:40;1.60;;;0.80;;
15356;SDS011;7778;48.792;9.260;2023-09-18T16:44:27;1.55;;;1.00;;
15356;SDS011;7778;48.792;9.260;2023-09-18T16:47:12;1.10;;;0.95;;
15356;SDS011;7778;48.792;9.260;2023-09-18T16:49:58;2.75;;;1.08;;
15356;SDS011;7778;48.792;9.260;2023-09-18T16:52:43;1.20;;;1.10;;
15356;SDS011;7778;48.792;9.260;2023-09-18T16:55:30;1.50;;;1.02;;
15356;SDS011;7778;48.792;9.260;2023-09-18T16:58:15;2.08;;;1.23;;
15356;SDS011;7778;48.792;9.260;2023-09-18T17:01:02;1.45;;;1.35;;